AirNav   TITAN Aviation Fuels
 
 530 users online  

47IS Flying Z Ranch Airport
Durand, Illinois, USA

GOING TO DURAND?


FAA INFORMATION EFFECTIVE 07 OCTOBER 2021

Location

FAA Identifier: 47IS
Lat/Long: 42-29-30.0000N 089-21-25.0000W
42-29.500000N 089-21.416667W
42.4916667,-89.3569444
(estimated)
Elevation: 945 ft. / 288 m (estimated)
From city: 5 miles N of DURAND, IL
Time zone: UTC -5 (UTC -6 during Standard Time)
Zip code: 61024

Airport Operations

Airport use: Private use. Permission required prior to landing
Activation date: 12/2003
Control tower: no
ARTCC: CHICAGO CENTER
FSS: KANKAKEE FLIGHT SERVICE STATION
Attendance: UNATNDD
Wind indicator: no
Segmented circle: no

Airport Communications

WX AWOS-3 at EFT (13 nm NW): 118.375 (608-328-8359)
WX AWOS-3 at JVL (16 nm NE): PHONE 608-758-1723
WX AWOS-3 at FEP (18 nm SW): 120.525 (815-233-4472)

Nearby radio navigation aids

VOR radial/distance  VOR name  Freq  Var
JVLr247/11.8JANESVILLE VOR/DME114.3003E
PLLr010/32.4POLO VOR/DME111.2003E
MSNr178/39.2MADISON VORTAC108.6003E

Airport Services

Runway Information

Runway 11/29

Dimensions: 1600 x 80 ft. / 488 x 24 m
Surface: turf
RUNWAY 11  RUNWAY 29
Traffic pattern: leftleft
Obstructions: none25 ft. trees, 375 ft. from runway

Airport Ownership and Management from official FAA records

Ownership: Privately-owned
Owner: DAVID E. ZIGMONT
16530 EICKS ROAD
DURAND, IL 61024
Phone 847-401-4340
Manager: DAVID E. ZIGMONT
16530 EICKS ROAD
DURAND, IL 61024
Phone 847-401-4340

Additional Remarks

FOR CD CTC CHICAGO ARTCC AT 630-906-8921.

Instrument Procedures

There are no published instrument procedures at 47IS.

Some nearby airports with instrument procedures:

KEFT - Monroe Municipal Airport (13 nm NW)
KJVL - Southern Wisconsin Regional Airport (16 nm NE)
44C - Beloit Airport (17 nm E)
KFEP - Albertus Airport (18 nm SW)
KRFD - Chicago/Rockford International Airport (21 nm SE)
 
Loc | Ops | Rwys | IFR | FBO | Links
Com | Nav | Svcs | Stats | Notes
Area around 47IS (Flying Z Ranch Airport)
 
Road maps at: MapQuest Bing Google
 
Aerial photo
No photo
 
Sectional chart

 
Airport distance calculator
Flying to Flying Z Ranch Airport? Find the distance to fly.

From to 47IS

Sunrise and sunset
Times for 28-Oct-2021
 Local
(UTC-5)
 Zulu
(UTC)
Morning civil twilight06:5811:58
Sunrise07:2712:27
Sunset17:5522:55
Evening civil twilight18:2423:24

Current date and time
Zulu (UTC)  28-Oct-2021 05:38:50
Local (UTC-5)  28-Oct-2021 00:38:50
 
METAR
KEFT 
12nm NW 
280515Z AUTO 09006KT 10SM CLR 07/05 A2978 RMK AO2 T00700045
KJVL 
17nm NE 
280455Z AUTO 08007KT 10SM CLR 08/07 A2979 RMK AO2
KFEP 
18nm SW 
280510Z AUTO 10009KT 10SM CLR 10/03 A2979 RMK AO2 T00950026
KRFD 
21nm SE 
280454Z VRB06KT 10SM OVC190 09/05 A2979 RMK AO2 SLP090 T00890050
TAF
KJVL 
17nm NE 
272058Z 2721/2818 12007KT P6SM BKN250 FM281000 08006KT P6SM SCT020 OVC035 FM281400 07010KT P6SM -RA OVC020
KRFD 
21nm SE 
280302Z 2803/2824 10006KT P6SM OVC200 FM280900 10008KT P6SM BKN015 OVC025 FM281200 07009KT 6SM -SHRA FEW009 OVC013 FM281500 06010KT 4SM SHRA BR OVC008 FM282000 05012G18KT 3SM SHRA BR OVC006
NOTAMs
Click for the latest NOTAMs
NOTAMs are issued by the DoD/FAA and will open in a separate window not controlled by AirNav.

 

 
 

Would you like to see your business listed on this page?

 If your business provides an interesting product or service to pilots, flight crews, aircraft, or users of the Flying Z Ranch Airport, you should consider listing it here.  To start the listing process, click on the button below
 
Add a business
 

Other Pages about Flying Z Ranch Airport

Update a link
 
Copyright © AirNav, LLC. All rights reserved. Privacy Policy  Contact